sensor_id;sensor_type;location;lat;lon;timestamp;temperature;humidity
35700;DHT22;21818;51.078;12.108;2023-04-24T00:02:13;18.50;79.60
35700;DHT22;21818;51.078;12.108;2023-04-24T00:04:39;18.50;79.50
35700;DHT22;21818;51.078;12.108;2023-04-24T00:07:10;18.40;79.60
35700;DHT22;21818;51.078;12.108;2023-04-24T00:09:36;18.40;79.90
35700;DHT22;21818;51.078;12.108;2023-04-24T00:12:01;18.40;79.80
35700;DHT22;21818;51.078;12.108;2023-04-24T00:14:30;18.30;80.00
35700;DHT22;21818;51.078;12.108;2023-04-24T00:16:55;18.30;80.10
35700;DHT22;21818;51.078;12.108;2023-04-24T00:19:21;18.40;80.00
35700;DHT22;21818;51.078;12.108;2023-04-24T00:21:47;18.50;79.90
35700;DHT22;21818;51.078;12.108;2023-04-24T00:24:18;18.50;79.80
35700;DHT22;21818;51.078;12.108;2023-04-24T00:26:43;18.40;79.90
35700;DHT22;21818;51.078;12.108;2023-04-24T00:29:09;18.50;79.90
35700;DHT22;21818;51.078;12.108;2023-04-24T00:31:35;18.50;79.90
35700;DHT22;21818;51.078;12.108;2023-04-24T00:34:04;18.50;80.00
35700;DHT22;21818;51.078;12.108;2023-04-24T00:36:30;18.50;80.00
35700;DHT22;21818;51.078;12.108;2023-04-24T00:38:56;18.50;80.00
35700;DHT22;21818;51.078;12.108;2023-04-24T00:41:22;18.40;80.00
35700;DHT22;21818;51.078;12.108;2023-04-24T00:43:49;18.40;80.20
35700;DHT22;21818;51.078;12.108;2023-04-24T00:46:16;18.40;80.40
35700;DHT22;21818;51.078;12.108;2023-04-24T00:48:42;18.40;80.30
35700;DHT22;21818;51.078;12.108;2023-04-24T00:51:08;18.40;80.40
35700;DHT22;21818;51.078;12.108;2023-04-24T00:53:33;18.40;80.30
35700;DHT22;21818;51.078;12.108;2023-04-24T00:55:59;18.40;80.20
35700;DHT22;21818;51.078;12.108;2023-04-24T00:58:26;18.40;80.20
35700;DHT22;21818;51.078;12.108;2023-04-24T01:00:53;18.50;80.20
35700;DHT22;21818;51.078;12.108;2023-04-24T01:03:24;18.60;80.10
35700;DHT22;21818;51.078;12.108;2023-04-24T01:05:51;18.60;79.90
35700;DHT22;21818;51.078;12.108;2023-04-24T01:08:18;18.50;79.80
35700;DHT22;21818;51.078;12.108;2023-04-24T01:10:44;18.60;79.80
35700;DHT22;21818;51.078;12.108;2023-04-24T01:13:11;18.60;79.80
35700;DHT22;21818;51.078;12.108;2023-04-24T01:15:37;18.60;79.90
35700;DHT22;21818;51.078;12.108;2023-04-24T01:18:03;18.50;79.90
35700;DHT22;21818;51.078;12.108;2023-04-24T01:20:28;18.40;79.90
35700;DHT22;21818;51.078;12.108;2023-04-24T01:22:55;18.30;80.10
35700;DHT22;21818;51.078;12.108;2023-04-24T01:25:22;18.30;80.30
35700;DHT22;21818;51.078;12.108;2023-04-24T01:27:47;18.10;80.40
35700;DHT22;21818;51.078;12.108;2023-04-24T01:30:13;18.00;80.70
35700;DHT22;21818;51.078;12.108;2023-04-24T01:32:40;17.90;80.90
35700;DHT22;21818;51.078;12.108;2023-04-24T01:35:07;18.00;81.00
35700;DHT22;21818;51.078;12.108;2023-04-24T01:37:32;18.00;80.80
35700;DHT22;21818;51.078;12.108;2023-04-24T01:39:58;17.90;80.90
35700;DHT22;21818;51.078;12.108;2023-04-24T01:42:24;17.90;80.90
35700;DHT22;21818;51.078;12.108;2023-04-24T01:44:50;17.90;80.90
35700;DHT22;21818;51.078;12.108;2023-04-24T01:47:16;17.90;80.80
35700;DHT22;21818;51.078;12.108;2023-04-24T01:49:42;17.90;80.80
35700;DHT22;21818;51.078;12.108;2023-04-24T01:52:08;18.00;80.80
35700;DHT22;21818;51.078;12.108;2023-04-24T01:54:33;18.00;80.80
35700;DHT22;21818;51.078;12.108;2023-04-24T01:56:59;18.00;80.70
35700;DHT22;21818;51.078;12.108;2023-04-24T01:59:28;18.00;80.80
35700;DHT22;21818;51.078;12.108;2023-04-24T02:01:53;18.00;80.70
35700;DHT22;21818;51.078;12.108;2023-04-24T02:04:19;18.00;80.60
35700;DHT22;21818;51.078;12.108;2023-04-24T02:06:44;18.00;80.70
35700;DHT22;21818;51.078;12.108;2023-04-24T02:09:10;18.00;80.80
35700;DHT22;21818;51.078;12.108;2023-04-24T02:11:36;18.00;80.70
35700;DHT22;21818;51.078;12.108;2023-04-24T02:14:02;17.90;80.60
35700;DHT22;21818;51.078;12.108;2023-04-24T02:16:28;17.90;80.80
35700;DHT22;21818;51.078;12.108;2023-04-24T02:18:57;17.90;80.80
35700;DHT22;21818;51.078;12.108;2023-04-24T02:21:23;17.90;80.60
35700;DHT22;21818;51.078;12.108;2023-04-24T02:23:48;18.00;80.60
35700;DHT22;21818;51.078;12.108;2023-04-24T02:26:14;18.10;80.40
35700;DHT22;21818;51.078;12.108;2023-04-24T02:28:40;18.20;80.40
35700;DHT22;21818;51.078;12.108;2023-04-24T02:31:06;18.10;80.20
35700;DHT22;21818;51.078;12.108;2023-04-24T02:33:31;18.20;80.30
35700;DHT22;21818;51.078;12.108;2023-04-24T02:35:57;18.20;80.20
35700;DHT22;21818;51.078;12.108;2023-04-24T02:38:22;18.30;79.90
35700;DHT22;21818;51.078;12.108;2023-04-24T02:40:48;18.30;79.80
35700;DHT22;21818;51.078;12.108;2023-04-24T02:43:13;18.30;79.60
35700;DHT22;21818;51.078;12.108;2023-04-24T02:45:39;18.30;79.70
35700;DHT22;21818;51.078;12.108;2023-04-24T02:48:04;18.10;79.90
35700;DHT22;21818;51.078;12.108;2023-04-24T02:50:30;18.20;79.90
35700;DHT22;21818;51.078;12.108;2023-04-24T02:52:55;18.10;79.80
35700;DHT22;21818;51.078;12.108;2023-04-24T02:55:21;18.10;79.80
35700;DHT22;21818;51.078;12.108;2023-04-24T02:57:47;18.10;79.90
35700;DHT22;21818;51.078;12.108;2023-04-24T03:00:12;18.00;80.40
35700;DHT22;21818;51.078;12.108;2023-04-24T03:02:38;17.90;80.10
35700;DHT22;21818;51.078;12.108;2023-04-24T03:05:04;17.90;80.20
35700;DHT22;21818;51.078;12.108;2023-04-24T03:07:30;17.80;80.10
35700;DHT22;21818;51.078;12.108;2023-04-24T03:09:56;17.70;80.20
35700;DHT22;21818;51.078;12.108;2023-04-24T03:12:23;17.70;80.30
35700;DHT22;21818;51.078;12.108;2023-04-24T03:14:49;17.60;80.20
35700;DHT22;21818;51.078;12.108;2023-04-24T03:17:15;17.60;80.30
35700;DHT22;21818;51.078;12.108;2023-04-24T03:19:40;17.60;80.40
35700;DHT22;21818;51.078;12.108;2023-04-24T03:22:06;17.60;80.20
35700;DHT22;21818;51.078;12.108;2023-04-24T03:24:31;17.50;80.30
35700;DHT22;21818;51.078;12.108;2023-04-24T03:26:57;17.40;80.50
35700;DHT22;21818;51.078;12.108;2023-04-24T03:29:23;17.30;80.80
35700;DHT22;21818;51.078;12.108;2023-04-24T03:31:48;17.20;80.90
35700;DHT22;21818;51.078;12.108;2023-04-24T03:34:14;17.30;80.80
35700;DHT22;21818;51.078;12.108;2023-04-24T03:36:39;17.20;80.60
35700;DHT22;21818;51.078;12.108;2023-04-24T03:39:05;17.30;81.10
35700;DHT22;21818;51.078;12.108;2023-04-24T03:41:30;17.30;80.50
35700;DHT22;21818;51.078;12.108;2023-04-24T03:43:56;17.20;80.60
35700;DHT22;21818;51.078;12.108;2023-04-24T03:46:22;17.10;80.60
35700;DHT22;21818;51.078;12.108;2023-04-24T03:48:47;17.10;80.70
35700;DHT22;21818;51.078;12.108;2023-04-24T03:51:13;17.10;80.80
35700;DHT22;21818;51.078;12.108;2023-04-24T03:53:38;17.10;80.90
35700;DHT22;21818;51.078;12.108;2023-04-24T03:56:04;17.10;80.80
35700;DHT22;21818;51.078;12.108;2023-04-24T03:58:30;17.10;80.90
35700;DHT22;21818;51.078;12.108;2023-04-24T04:00:55;17.00;80.80
35700;DHT22;21818;51.078;12.108;2023-04-24T04:03:23;17.00;81.00
35700;DHT22;21818;51.078;12.108;2023-04-24T04:05:49;16.90;81.00
35700;DHT22;21818;51.078;12.108;2023-04-24T04:08:14;17.00;81.00
35700;DHT22;21818;51.078;12.108;2023-04-24T04:10:40;17.10;80.70
35700;DHT22;21818;51.078;12.108;2023-04-24T04:13:05;17.10;80.60
35700;DHT22;21818;51.078;12.108;2023-04-24T04:15:31;17.10;80.50
35700;DHT22;21818;51.078;12.108;2023-04-24T04:17:57;17.10;80.50
35700;DHT22;21818;51.078;12.108;2023-04-24T04:20:23;17.10;80.50
35700;DHT22;21818;51.078;12.108;2023-04-24T04:22:48;17.10;80.60
35700;DHT22;21818;51.078;12.108;2023-04-24T04:25:14;17.00;80.80
35700;DHT22;21818;51.078;12.108;2023-04-24T04:27:39;16.90;81.00
35700;DHT22;21818;51.078;12.108;2023-04-24T04:30:07;17.00;81.00
35700;DHT22;21818;51.078;12.108;2023-04-24T04:32:34;17.00;80.90
35700;DHT22;21818;51.078;12.108;2023-04-24T04:35:03;17.00;81.00
35700;DHT22;21818;51.078;12.108;2023-04-24T04:37:32;17.00;80.90
35700;DHT22;21818;51.078;12.108;2023-04-24T04:40:02;16.90;81.00
35700;DHT22;21818;51.078;12.108;2023-04-24T04:42:32;16.90;80.90
35700;DHT22;21818;51.078;12.108;2023-04-24T04:45:01;17.00;80.90
35700;DHT22;21818;51.078;12.108;2023-04-24T04:47:27;17.00;80.70
35700;DHT22;21818;51.078;12.108;2023-04-24T04:49:53;17.10;80.50
35700;DHT22;21818;51.078;12.108;2023-04-24T04:52:20;17.20;80.40
35700;DHT22;21818;51.078;12.108;2023-04-24T04:54:45;17.30;80.20
35700;DHT22;21818;51.078;12.108;2023-04-24T04:57:11;17.40;79.90
35700;DHT22;21818;51.078;12.108;2023-04-24T04:59:37;17.50;79.80
35700;DHT22;21818;51.078;12.108;2023-04-24T05:02:03;17.50;79.80
35700;DHT22;21818;51.078;12.108;2023-04-24T05:04:29;17.50;79.70
35700;DHT22;21818;51.078;12.108;2023-04-24T05:06:55;17.50;79.60
35700;DHT22;21818;51.078;12.108;2023-04-24T05:09:21;17.50;79.60
35700;DHT22;21818;51.078;12.108;2023-04-24T05:11:47;17.60;80.00
35700;DHT22;21818;51.078;12.108;2023-04-24T05:14:12;17.70;80.10
35700;DHT22;21818;51.078;12.108;2023-04-24T05:16:38;17.80;80.00
35700;DHT22;21818;51.078;12.108;2023-04-24T05:19:04;17.80;79.80
35700;DHT22;21818;51.078;12.108;2023-04-24T05:21:30;17.80;79.70
35700;DHT22;21818;51.078;12.108;2023-04-24T05:23:56;17.70;79.70
35700;DHT22;21818;51.078;12.108;2023-04-24T05:26:22;17.80;79.60
35700;DHT22;21818;51.078;12.108;2023-04-24T05:28:48;17.80;79.60
35700;DHT22;21818;51.078;12.108;2023-04-24T05:31:13;17.80;79.50
35700;DHT22;21818;51.078;12.108;2023-04-24T05:33:39;17.80;79.50
35700;DHT22;21818;51.078;12.108;2023-04-24T05:36:06;17.80;79.30
35700;DHT22;21818;51.078;12.108;2023-04-24T05:38:32;17.80;79.20
35700;DHT22;21818;51.078;12.108;2023-04-24T05:40:57;17.80;79.10
35700;DHT22;21818;51.078;12.108;2023-04-24T05:43:23;17.80;79.20
35700;DHT22;21818;51.078;12.108;2023-04-24T05:45:48;17.80;79.30
35700;DHT22;21818;51.078;12.108;2023-04-24T05:48:14;17.80;79.00
35700;DHT22;21818;51.078;12.108;2023-04-24T05:50:40;17.70;79.00
35700;DHT22;21818;51.078;12.108;2023-04-24T05:53:05;17.70;79.00
35700;DHT22;21818;51.078;12.108;2023-04-24T05:55:32;17.80;78.80
35700;DHT22;21818;51.078;12.108;2023-04-24T05:57:58;17.80;78.60
35700;DHT22;21818;51.078;12.108;2023-04-24T06:00:24;17.90;78.40
35700;DHT22;21818;51.078;12.108;2023-04-24T06:02:50;17.90;78.30
35700;DHT22;21818;51.078;12.108;2023-04-24T06:05:15;17.80;78.30
35700;DHT22;21818;51.078;12.108;2023-04-24T06:07:41;17.90;78.30
35700;DHT22;21818;51.078;12.108;2023-04-24T06:10:07;17.90;78.00
35700;DHT22;21818;51.078;12.108;2023-04-24T06:12:33;17.90;78.00
35700;DHT22;21818;51.078;12.108;2023-04-24T06:14:58;17.80;78.10
35700;DHT22;21818;51.078;12.108;2023-04-24T06:17:24;17.80;78.10
35700;DHT22;21818;51.078;12.108;2023-04-24T06:19:49;17.80;78.30
35700;DHT22;21818;51.078;12.108;2023-04-24T06:22:15;17.80;78.60
35700;DHT22;21818;51.078;12.108;2023-04-24T06:24:40;17.80;78.90
35700;DHT22;21818;51.078;12.108;2023-04-24T06:27:06;17.80;79.20
35700;DHT22;21818;51.078;12.108;2023-04-24T06:29:33;17.80;79.30
35700;DHT22;21818;51.078;12.108;2023-04-24T06:31:59;17.90;79.20
35700;DHT22;21818;51.078;12.108;2023-04-24T06:34:24;18.00;79.10
35700;DHT22;21818;51.078;12.108;2023-04-24T06:36:50;17.90;79.30
35700;DHT22;21818;51.078;12.108;2023-04-24T06:39:16;18.00;79.50
35700;DHT22;21818;51.078;12.108;2023-04-24T06:41:41;18.00;79.50
35700;DHT22;21818;51.078;12.108;2023-04-24T06:44:07;18.10;79.30
35700;DHT22;21818;51.078;12.108;2023-04-24T06:46:32;18.10;79.30
35700;DHT22;21818;51.078;12.108;2023-04-24T06:48:58;18.10;79.20
35700;DHT22;21818;51.078;12.108;2023-04-24T06:51:24;18.10;79.00
35700;DHT22;21818;51.078;12.108;2023-04-24T06:53:51;18.10;79.00
35700;DHT22;21818;51.078;12.108;2023-04-24T06:56:17;18.20;78.80
35700;DHT22;21818;51.078;12.108;2023-04-24T06:58:43;18.20;78.60
35700;DHT22;21818;51.078;12.108;2023-04-24T07:01:09;18.20;78.50
35700;DHT22;21818;51.078;12.108;2023-04-24T07:03:35;18.10;78.40
35700;DHT22;21818;51.078;12.108;2023-04-24T07:06:00;18.20;78.30
35700;DHT22;21818;51.078;12.108;2023-04-24T07:08:26;18.30;78.10
35700;DHT22;21818;51.078;12.108;2023-04-24T07:10:52;18.30;77.80
35700;DHT22;21818;51.078;12.108;2023-04-24T07:13:17;18.30;77.90
35700;DHT22;21818;51.078;12.108;2023-04-24T07:15:43;18.20;77.80
35700;DHT22;21818;51.078;12.108;2023-04-24T07:18:09;18.20;77.90
35700;DHT22;21818;51.078;12.108;2023-04-24T07:20:34;18.20;77.90
35700;DHT22;21818;51.078;12.108;2023-04-24T07:23:00;18.30;77.70
35700;DHT22;21818;51.078;12.108;2023-04-24T07:25:26;18.40;77.40
35700;DHT22;21818;51.078;12.108;2023-04-24T07:27:52;18.50;77.10
35700;DHT22;21818;51.078;12.108;2023-04-24T07:30:18;18.60;76.90
35700;DHT22;21818;51.078;12.108;2023-04-24T07:32:43;18.70;76.60
35700;DHT22;21818;51.078;12.108;2023-04-24T07:35:09;18.80;76.30
35700;DHT22;21818;51.078;12.108;2023-04-24T07:37:35;18.80;76.20
35700;DHT22;21818;51.078;12.108;2023-04-24T07:40:01;18.80;75.90
35700;DHT22;21818;51.078;12.108;2023-04-24T07:42:27;18.90;76.30
35700;DHT22;21818;51.078;12.108;2023-04-24T07:44:53;18.90;75.50
35700;DHT22;21818;51.078;12.108;2023-04-24T07:47:19;18.90;75.40
35700;DHT22;21818;51.078;12.108;2023-04-24T07:49:44;18.90;75.30
35700;DHT22;21818;51.078;12.108;2023-04-24T07:52:10;18.90;75.30
35700;DHT22;21818;51.078;12.108;2023-04-24T07:54:35;18.90;75.10
35700;DHT22;21818;51.078;12.108;2023-04-24T07:57:03;18.90;75.00
35700;DHT22;21818;51.078;12.108;2023-04-24T07:59:28;19.00;74.80
35700;DHT22;21818;51.078;12.108;2023-04-24T08:01:54;19.00;74.60
35700;DHT22;21818;51.078;12.108;2023-04-24T08:04:19;19.10;74.30
35700;DHT22;21818;51.078;12.108;2023-04-24T08:06:47;19.10;73.90
35700;DHT22;21818;51.078;12.108;2023-04-24T08:09:12;19.10;73.70
35700;DHT22;21818;51.078;12.108;2023-04-24T08:11:38;19.10;73.60
35700;DHT22;21818;51.078;12.108;2023-04-24T08:14:04;19.10;73.30
35700;DHT22;21818;51.078;12.108;2023-04-24T08:16:29;19.10;73.00
35700;DHT22;21818;51.078;12.108;2023-04-24T08:18:55;19.10;73.00
35700;DHT22;21818;51.078;12.108;2023-04-24T08:21:20;19.10;72.80
35700;DHT22;21818;51.078;12.108;2023-04-24T08:23:46;19.00;72.80
35700;DHT22;21818;51.078;12.108;2023-04-24T08:26:13;19.00;72.80
35700;DHT22;21818;51.078;12.108;2023-04-24T08:28:38;19.00;72.60
35700;DHT22;21818;51.078;12.108;2023-04-24T08:31:04;19.00;72.40
35700;DHT22;21818;51.078;12.108;2023-04-24T08:33:30;19.00;72.20
35700;DHT22;21818;51.078;12.108;2023-04-24T08:36:01;19.00;71.90
35700;DHT22;21818;51.078;12.108;2023-04-24T08:38:27;19.00;72.00
35700;DHT22;21818;51.078;12.108;2023-04-24T08:40:52;18.90;71.90
35700;DHT22;21818;51.078;12.108;2023-04-24T08:43:18;18.90;71.90
35700;DHT22;21818;51.078;12.108;2023-04-24T08:45:47;18.90;71.90
35700;DHT22;21818;51.078;12.108;2023-04-24T08:48:13;18.90;71.90
35700;DHT22;21818;51.078;12.108;2023-04-24T08:50:40;18.90;71.80
35700;DHT22;21818;51.078;12.108;2023-04-24T08:53:08;18.90;71.50
35700;DHT22;21818;51.078;12.108;2023-04-24T08:55:34;19.10;71.80
35700;DHT22;21818;51.078;12.108;2023-04-24T08:58:01;19.10;70.90
35700;DHT22;21818;51.078;12.108;2023-04-24T09:00:28;19.10;70.80
35700;DHT22;21818;51.078;12.108;2023-04-24T09:02:54;19.20;70.60
35700;DHT22;21818;51.078;12.108;2023-04-24T09:05:21;19.20;70.40
35700;DHT22;21818;51.078;12.108;2023-04-24T09:07:54;19.20;70.10
35700;DHT22;21818;51.078;12.108;2023-04-24T09:10:23;19.20;69.70
35700;DHT22;21818;51.078;12.108;2023-04-24T09:12:51;19.20;69.70
35700;DHT22;21818;51.078;12.108;2023-04-24T09:15:17;19.10;69.60
35700;DHT22;21818;51.078;12.108;2023-04-24T09:17:43;19.10;69.50
35700;DHT22;21818;51.078;12.108;2023-04-24T09:20:09;19.10;69.40
35700;DHT22;21818;51.078;12.108;2023-04-24T09:22:36;19.00;69.20
35700;DHT22;21818;51.078;12.108;2023-04-24T09:25:03;19.00;69.10
35700;DHT22;21818;51.078;12.108;2023-04-24T09:27:31;19.00;69.00
35700;DHT22;21818;51.078;12.108;2023-04-24T09:29:57;19.00;68.80
35700;DHT22;21818;51.078;12.108;2023-04-24T09:32:24;19.10;68.60
35700;DHT22;21818;51.078;12.108;2023-04-24T09:35:15;19.00;68.50
35700;DHT22;21818;51.078;12.108;2023-04-24T09:37:46;19.10;68.40
35700;DHT22;21818;51.078;12.108;2023-04-24T09:40:13;19.10;68.10
35700;DHT22;21818;51.078;12.108;2023-04-24T09:42:40;19.10;68.00
35700;DHT22;21818;51.078;12.108;2023-04-24T09:45:09;19.20;67.90
35700;DHT22;21818;51.078;12.108;2023-04-24T09:47:37;19.10;67.80
35700;DHT22;21818;51.078;12.108;2023-04-24T09:50:16;19.10;67.70
35700;DHT22;21818;51.078;12.108;2023-04-24T09:52:47;19.20;67.50
35700;DHT22;21818;51.078;12.108;2023-04-24T09:55:21;19.30;67.10
35700;DHT22;21818;51.078;12.108;2023-04-24T10:00:27;19.30;66.30
35700;DHT22;21818;51.078;12.108;2023-04-24T10:03:03;19.30;65.80
35700;DHT22;21818;51.078;12.108;2023-04-24T10:05:34;19.20;65.50
35700;DHT22;21818;51.078;12.108;2023-04-24T10:08:09;19.30;65.20
35700;DHT22;21818;51.078;12.108;2023-04-24T10:10:43;19.40;64.90
35700;DHT22;21818;51.078;12.108;2023-04-24T10:13:13;19.40;64.30
35700;DHT22;21818;51.078;12.108;2023-04-24T10:15:41;19.40;64.20
35700;DHT22;21818;51.078;12.108;2023-04-24T10:18:08;19.40;63.90
35700;DHT22;21818;51.078;12.108;2023-04-24T10:20:36;19.30;63.70
35700;DHT22;21818;51.078;12.108;2023-04-24T10:23:02;19.30;63.30
35700;DHT22;21818;51.078;12.108;2023-04-24T10:25:30;19.20;63.20
35700;DHT22;21818;51.078;12.108;2023-04-24T10:27:56;19.20;63.10
35700;DHT22;21818;51.078;12.108;2023-04-24T10:30:25;19.20;63.80
35700;DHT22;21818;51.078;12.108;2023-04-24T10:32:50;19.30;64.60
35700;DHT22;21818;51.078;12.108;2023-04-24T10:35:17;19.30;64.30
35700;DHT22;21818;51.078;12.108;2023-04-24T10:37:50;19.40;63.90
35700;DHT22;21818;51.078;12.108;2023-04-24T10:40:18;19.40;63.40
35700;DHT22;21818;51.078;12.108;2023-04-24T10:42:47;19.40;63.00
35700;DHT22;21818;51.078;12.108;2023-04-24T10:45:21;19.40;62.50
35700;DHT22;21818;51.078;12.108;2023-04-24T10:48:09;19.40;62.40
35700;DHT22;21818;51.078;12.108;2023-04-24T10:50:46;19.40;62.40
35700;DHT22;21818;51.078;12.108;2023-04-24T10:53:17;19.40;62.20
35700;DHT22;21818;51.078;12.108;2023-04-24T10:58:11;19.50;62.10
35700;DHT22;21818;51.078;12.108;2023-04-24T11:00:41;19.50;61.80
35700;DHT22;21818;51.078;12.108;2023-04-24T11:03:24;19.50;61.50
35700;DHT22;21818;51.078;12.108;2023-04-24T11:08:28;19.40;61.60
35700;DHT22;21818;51.078;12.108;2023-04-24T11:11:12;19.30;61.60
35700;DHT22;21818;51.078;12.108;2023-04-24T11:16:30;19.30;61.30
35700;DHT22;21818;51.078;12.108;2023-04-24T11:19:08;19.40;61.60
35700;DHT22;21818;51.078;12.108;2023-04-24T11:21:48;19.40;61.30
35700;DHT22;21818;51.078;12.108;2023-04-24T11:24:30;19.50;61.30
35700;DHT22;21818;51.078;12.108;2023-04-24T11:27:00;19.50;61.00
35700;DHT22;21818;51.078;12.108;2023-04-24T11:37:45;19.70;60.30
35700;DHT22;21818;51.078;12.108;2023-04-24T11:40:13;19.80;60.00
35700;DHT22;21818;51.078;12.108;2023-04-24T11:42:44;19.70;59.40
35700;DHT22;21818;51.078;12.108;2023-04-24T11:45:12;19.60;59.40
35700;DHT22;21818;51.078;12.108;2023-04-24T11:47:39;19.50;59.20
35700;DHT22;21818;51.078;12.108;2023-04-24T11:50:16;19.50;59.30
35700;DHT22;21818;51.078;12.108;2023-04-24T11:52:44;19.50;59.10
35700;DHT22;21818;51.078;12.108;2023-04-24T11:57:48;19.40;59.10
35700;DHT22;21818;51.078;12.108;2023-04-24T12:00:18;19.40;59.10
35700;DHT22;21818;51.078;12.108;2023-04-24T12:02:44;19.30;59.10
35700;DHT22;21818;51.078;12.108;2023-04-24T12:05:30;19.40;59.00
35700;DHT22;21818;51.078;12.108;2023-04-24T12:07:59;19.50;58.30
35700;DHT22;21818;51.078;12.108;2023-04-24T12:10:28;19.60;58.60
35700;DHT22;21818;51.078;12.108;2023-04-24T12:12:55;19.60;58.40
35700;DHT22;21818;51.078;12.108;2023-04-24T12:15:21;19.70;58.00
35700;DHT22;21818;51.078;12.108;2023-04-24T12:17:48;19.70;57.60
35700;DHT22;21818;51.078;12.108;2023-04-24T12:20:15;19.60;57.80
35700;DHT22;21818;51.078;12.108;2023-04-24T12:22:52;19.50;57.50
35700;DHT22;21818;51.078;12.108;2023-04-24T12:25:21;19.60;57.40
35700;DHT22;21818;51.078;12.108;2023-04-24T12:27:57;19.80;56.80
35700;DHT22;21818;51.078;12.108;2023-04-24T12:30:45;19.90;56.50
35700;DHT22;21818;51.078;12.108;2023-04-24T12:33:17;20.00;56.40
35700;DHT22;21818;51.078;12.108;2023-04-24T12:35:45;19.90;56.70
35700;DHT22;21818;51.078;12.108;2023-04-24T12:38:15;19.70;56.90
35700;DHT22;21818;51.078;12.108;2023-04-24T12:40:41;19.50;56.90
35700;DHT22;21818;51.078;12.108;2023-04-24T12:43:16;19.40;57.00
35700;DHT22;21818;51.078;12.108;2023-04-24T12:45:42;19.40;56.90
35700;DHT22;21818;51.078;12.108;2023-04-24T12:48:08;19.40;56.90
35700;DHT22;21818;51.078;12.108;2023-04-24T12:50:33;19.50;56.70
35700;DHT22;21818;51.078;12.108;2023-04-24T12:53:00;20.20;55.60
35700;DHT22;21818;51.078;12.108;2023-04-24T12:55:25;20.60;54.90
35700;DHT22;21818;51.078;12.108;2023-04-24T12:57:51;20.50;55.10
35700;DHT22;21818;51.078;12.108;2023-04-24T13:00:17;20.60;54.60
35700;DHT22;21818;51.078;12.108;2023-04-24T13:02:43;20.70;54.30
35700;DHT22;21818;51.078;12.108;2023-04-24T13:05:08;20.60;54.60
35700;DHT22;21818;51.078;12.108;2023-04-24T13:07:34;21.10;54.00
35700;DHT22;21818;51.078;12.108;2023-04-24T13:10:00;21.80;53.00
35700;DHT22;21818;51.078;12.108;2023-04-24T13:12:25;22.40;52.30
35700;DHT22;21818;51.078;12.108;2023-04-24T13:14:52;22.50;52.10
35700;DHT22;21818;51.078;12.108;2023-04-24T13:17:17;22.60;51.80
35700;DHT22;21818;51.078;12.108;2023-04-24T13:19:44;22.20;52.40
35700;DHT22;21818;51.078;12.108;2023-04-24T13:22:11;22.10;52.60
35700;DHT22;21818;51.078;12.108;2023-04-24T13:24:37;22.40;51.90
35700;DHT22;21818;51.078;12.108;2023-04-24T13:27:05;22.40;51.60
35700;DHT22;21818;51.078;12.108;2023-04-24T13:29:30;22.00;52.00
35700;DHT22;21818;51.078;12.108;2023-04-24T13:31:56;21.90;52.20
35700;DHT22;21818;51.078;12.108;2023-04-24T13:34:25;21.90;51.90
35700;DHT22;21818;51.078;12.108;2023-04-24T13:36:56;21.70;51.90
35700;DHT22;21818;51.078;12.108;2023-04-24T13:39:25;21.50;52.10
35700;DHT22;21818;51.078;12.108;2023-04-24T13:41:51;21.30;52.30
35700;DHT22;21818;51.078;12.108;2023-04-24T13:44:18;21.20;52.50
35700;DHT22;21818;51.078;12.108;2023-04-24T13:46:46;21.10;52.50
35700;DHT22;21818;51.078;12.108;2023-04-24T13:49:13;20.90;52.50
35700;DHT22;21818;51.078;12.108;2023-04-24T13:51:39;20.80;52.70
35700;DHT22;21818;51.078;12.108;2023-04-24T13:54:05;20.70;52.90
35700;DHT22;21818;51.078;12.108;2023-04-24T13:56:31;20.60;52.80
35700;DHT22;21818;51.078;12.108;2023-04-24T13:58:57;20.70;52.70
35700;DHT22;21818;51.078;12.108;2023-04-24T14:01:23;20.90;52.40
35700;DHT22;21818;51.078;12.108;2023-04-24T14:03:51;21.20;51.90
35700;DHT22;21818;51.078;12.108;2023-04-24T14:06:17;21.10;51.80
35700;DHT22;21818;51.078;12.108;2023-04-24T14:08:42;21.00;52.00
35700;DHT22;21818;51.078;12.108;2023-04-24T14:11:08;20.80;52.30
35700;DHT22;21818;51.078;12.108;2023-04-24T14:13:35;20.60;52.40
35700;DHT22;21818;51.078;12.108;2023-04-24T14:16:01;20.50;52.60
35700;DHT22;21818;51.078;12.108;2023-04-24T14:18:27;20.20;52.80
35700;DHT22;21818;51.078;12.108;2023-04-24T14:20:52;20.10;52.90
35700;DHT22;21818;51.078;12.108;2023-04-24T14:23:18;20.00;53.10
35700;DHT22;21818;51.078;12.108;2023-04-24T14:25:43;19.90;53.20
35700;DHT22;21818;51.078;12.108;2023-04-24T14:28:09;19.90;53.50
35700;DHT22;21818;51.078;12.108;2023-04-24T14:30:35;19.90;53.60
35700;DHT22;21818;51.078;12.108;2023-04-24T14:33:03;20.00;54.00
35700;DHT22;21818;51.078;12.108;2023-04-24T14:35:29;20.50;52.90
35700;DHT22;21818;51.078;12.108;2023-04-24T14:37:56;20.80;52.50
35700;DHT22;21818;51.078;12.108;2023-04-24T14:40:22;21.20;52.00
35700;DHT22;21818;51.078;12.108;2023-04-24T14:42:48;21.60;51.60
35700;DHT22;21818;51.078;12.108;2023-04-24T14:45:13;21.90;51.30
35700;DHT22;21818;51.078;12.108;2023-04-24T14:47:39;22.10;50.90
35700;DHT22;21818;51.078;12.108;2023-04-24T14:50:05;21.90;51.00
35700;DHT22;21818;51.078;12.108;2023-04-24T14:52:31;21.40;51.50
35700;DHT22;21818;51.078;12.108;2023-04-24T14:54:56;21.10;52.00
35700;DHT22;21818;51.078;12.108;2023-04-24T14:57:22;20.80;52.40
35700;DHT22;21818;51.078;12.108;2023-04-24T14:59:48;20.50;52.60
35700;DHT22;21818;51.078;12.108;2023-04-24T15:02:14;20.30;53.00
35700;DHT22;21818;51.078;12.108;2023-04-24T15:04:39;20.10;53.40
35700;DHT22;21818;51.078;12.108;2023-04-24T15:07:05;20.00;53.60
35700;DHT22;21818;51.078;12.108;2023-04-24T15:09:30;19.80;53.80
35700;DHT22;21818;51.078;12.108;2023-04-24T15:11:57;19.50;54.10
35700;DHT22;21818;51.078;12.108;2023-04-24T15:14:23;19.40;54.50
35700;DHT22;21818;51.078;12.108;2023-04-24T15:16:49;19.10;54.60
35700;DHT22;21818;51.078;12.108;2023-04-24T15:19:15;18.80;55.00
35700;DHT22;21818;51.078;12.108;2023-04-24T15:21:40;18.80;55.10
35700;DHT22;21818;51.078;12.108;2023-04-24T15:24:08;18.70;55.10
35700;DHT22;21818;51.078;12.108;2023-04-24T15:26:34;18.70;55.20
35700;DHT22;21818;51.078;12.108;2023-04-24T15:29:00;18.60;55.20
35700;DHT22;21818;51.078;12.108;2023-04-24T15:31:25;18.60;55.30
35700;DHT22;21818;51.078;12.108;2023-04-24T15:33:51;18.60;55.30
35700;DHT22;21818;51.078;12.108;2023-04-24T15:36:17;18.50;55.40